createdAt,value
2018-06-14T00:00:46.364Z,98.60
2018-06-14T00:02:49.925Z,98.20
2018-06-14T00:06:56.744Z,98.00
2018-06-14T00:09:00.268Z,98.00
2018-06-14T00:11:03.845Z,97.80
2018-06-14T00:13:07.526Z,98.30
2018-06-14T00:15:11.520Z,98.10
2018-06-14T00:17:15.084Z,98.20
2018-06-14T00:19:18.628Z,98.50
2018-06-14T00:21:22.159Z,98.70
2018-06-14T00:23:25.693Z,98.70
2018-06-14T00:25:29.180Z,98.80
2018-06-14T00:27:32.697Z,98.60
2018-06-14T00:29:36.204Z,98.80
2018-06-14T00:31:39.688Z,98.90
2018-06-14T00:33:43.251Z,98.80
2018-06-14T00:35:46.896Z,98.70
2018-06-14T00:37:50.533Z,98.90
2018-06-14T00:39:54.015Z,98.80
2018-06-14T00:41:57.503Z,98.90
2018-06-14T00:44:01.016Z,98.80
2018-06-14T00:46:04.555Z,98.70
2018-06-14T00:48:08.130Z,98.60
2018-06-14T00:50:11.655Z,98.50
2018-06-14T00:52:15.170Z,98.60
2018-06-14T00:54:18.674Z,99.00
2018-06-14T00:56:22.194Z,98.90
2018-06-14T00:58:25.796Z,99.00
2018-06-14T01:00:29.316Z,98.90
2018-06-14T01:02:34.199Z,99.10
2018-06-14T01:04:37.716Z,98.80
2018-06-14T01:06:41.234Z,99.00
2018-06-14T01:08:44.803Z,98.90
2018-06-14T01:10:48.294Z,98.60
2018-06-14T01:12:51.840Z,98.90
2018-06-14T01:14:55.344Z,98.70
2018-06-14T01:16:58.886Z,98.60
2018-06-14T01:19:02.586Z,98.70
2018-06-14T01:21:06.099Z,99.00
2018-06-14T01:23:09.870Z,98.90
2018-06-14T01:25:13.382Z,99.00
2018-06-14T01:27:16.899Z,99.00
2018-06-14T01:29:20.690Z,98.80
2018-06-14T01:31:24.204Z,98.90
2018-06-14T01:33:27.704Z,99.20
2018-06-14T01:35:31.227Z,99.00
2018-06-14T01:37:45.939Z,99.00
2018-06-14T01:39:49.451Z,99.30
2018-06-14T01:41:53.012Z,99.20
2018-06-14T01:43:56.586Z,99.20
2018-06-14T01:46:00.079Z,99.10
2018-06-14T01:48:03.641Z,98.80
2018-06-14T01:50:07.146Z,99.10
2018-06-14T01:52:10.801Z,99.50
2018-06-14T01:54:14.310Z,99.90
2018-06-14T01:56:17.900Z,99.90
2018-06-14T01:58:21.395Z,99.90
2018-06-14T02:00:24.992Z,99.90
2018-06-14T02:02:28.672Z,99.90
2018-06-14T02:04:32.175Z,99.90
2018-06-14T02:06:35.723Z,99.90
2018-06-14T02:08:39.241Z,99.90
2018-06-14T02:10:42.747Z,99.90
2018-06-14T02:12:46.221Z,99.90
2018-06-14T02:14:49.730Z,99.60
2018-06-14T02:16:53.282Z,99.70
2018-06-14T02:18:56.823Z,99.70
2018-06-14T02:21:00.348Z,99.50
2018-06-14T02:23:03.868Z,99.60
2018-06-14T02:25:07.607Z,99.70
2018-06-14T02:27:11.280Z,99.80
2018-06-14T02:29:17.607Z,99.70
2018-06-14T02:31:21.247Z,99.80
2018-06-14T02:33:24.765Z,99.90
2018-06-14T02:35:28.279Z,99.90
2018-06-14T02:37:35.992Z,99.90
2018-06-14T02:39:39.564Z,99.90
2018-06-14T02:41:43.173Z,99.90
2018-06-14T02:43:46.775Z,99.90
2018-06-14T02:45:50.351Z,99.90
2018-06-14T02:47:53.887Z,99.90
2018-06-14T02:49:57.410Z,99.90
2018-06-14T02:52:00.917Z,99.90
2018-06-14T02:54:04.431Z,99.90
2018-06-14T02:56:07.969Z,99.90
2018-06-14T02:58:11.465Z,99.90
2018-06-14T03:00:15.024Z,99.90
2018-06-14T03:02:18.578Z,99.90
2018-06-14T03:04:22.052Z,99.90
2018-06-14T03:06:25.669Z,99.90
2018-06-14T03:08:29.210Z,99.90
2018-06-14T03:10:32.785Z,99.90
2018-06-14T03:12:36.298Z,99.90
2018-06-14T03:14:39.788Z,99.90
2018-06-14T03:16:43.288Z,99.90
2018-06-14T03:18:46.848Z,99.90
2018-06-14T03:20:50.410Z,99.90
2018-06-14T03:22:54.990Z,99.90
2018-06-14T03:24:58.488Z,99.90
2018-06-14T03:27:02.015Z,99.90
2018-06-14T03:29:05.827Z,99.90
2018-06-14T03:31:09.387Z,99.90
2018-06-14T03:33:12.892Z,99.90
2018-06-14T03:35:16.455Z,99.90
2018-06-14T03:37:19.956Z,99.90
2018-06-14T03:39:23.566Z,99.90
2018-06-14T03:41:27.153Z,99.90
2018-06-14T03:43:30.651Z,99.90
2018-06-14T03:45:34.218Z,99.90
2018-06-14T03:47:37.684Z,99.90
2018-06-14T03:49:42.174Z,99.90
2018-06-14T03:51:45.828Z,99.90
2018-06-14T03:53:49.376Z,99.90
2018-06-14T03:55:53.051Z,99.90
2018-06-14T03:57:56.656Z,99.90
2018-06-14T04:00:00.280Z,99.90
2018-06-14T04:02:04.194Z,99.90
2018-06-14T04:04:07.827Z,99.90
2018-06-14T04:06:11.444Z,99.90
2018-06-14T04:08:15.005Z,99.90
2018-06-14T04:10:18.554Z,99.90
2018-06-14T04:12:22.128Z,99.90
2018-06-14T04:14:25.632Z,99.90
2018-06-14T04:18:32.478Z,99.90
2018-06-14T04:20:36.005Z,99.90
2018-06-14T04:22:39.637Z,99.90
2018-06-14T04:24:43.272Z,99.90
2018-06-14T04:26:47.023Z,99.90
2018-06-14T04:28:50.504Z,99.90
2018-06-14T04:30:54.003Z,99.90
2018-06-14T04:32:57.501Z,99.90
2018-06-14T04:35:01.078Z,99.90
2018-06-14T04:37:04.614Z,99.90
2018-06-14T04:39:09.828Z,99.90
2018-06-14T04:41:13.412Z,99.90
2018-06-14T04:43:16.905Z,99.90
2018-06-14T04:45:20.643Z,99.90
2018-06-14T04:47:24.224Z,99.90
2018-06-14T04:51:31.112Z,99.90
2018-06-14T04:53:38.786Z,99.90
2018-06-14T04:55:42.274Z,99.90
2018-06-14T04:57:45.774Z,99.90
2018-06-14T04:59:49.334Z,99.90
2018-06-14T05:01:52.870Z,99.90
2018-06-14T05:03:56.445Z,99.90
2018-06-14T05:06:00.173Z,99.90
2018-06-14T05:10:06.885Z,99.90
2018-06-14T05:12:11.168Z,99.90
2018-06-14T05:14:14.689Z,99.90
2018-06-14T05:16:18.215Z,99.90
2018-06-14T05:18:22.956Z,99.90
2018-06-14T05:20:26.542Z,99.90
2018-06-14T05:22:30.243Z,99.90
2018-06-14T05:24:33.759Z,99.90
2018-06-14T05:26:37.385Z,99.90
2018-06-14T05:28:40.913Z,99.90
2018-06-14T05:30:45.172Z,99.90
2018-06-14T05:32:48.792Z,99.90
2018-06-14T05:34:52.376Z,99.90
2018-06-14T05:36:56.555Z,99.90
2018-06-14T05:39:00.060Z,99.90
2018-06-14T05:41:03.578Z,99.90
2018-06-14T05:43:07.288Z,99.90
2018-06-14T05:45:10.787Z,99.90
2018-06-14T05:51:20.796Z,99.90
2018-06-14T05:53:24.291Z,99.90
2018-06-14T05:55:27.805Z,99.90
2018-06-14T05:57:31.295Z,99.90
2018-06-14T05:59:34.779Z,99.90
2018-06-14T06:01:38.292Z,99.90
2018-06-14T06:03:41.827Z,99.90
2018-06-14T06:05:45.388Z,99.90
2018-06-14T06:07:49.339Z,99.50
2018-06-14T06:11:56.037Z,99.90
2018-06-14T06:13:59.736Z,99.70
2018-06-14T06:16:03.232Z,99.00
2018-06-14T06:18:06.741Z,99.20
2018-06-14T06:20:15.699Z,98.70
2018-06-14T06:22:19.371Z,99.10
2018-06-14T06:24:22.858Z,99.00
2018-06-14T06:26:26.459Z,98.70
2018-06-14T06:28:29.887Z,98.40
2018-06-14T06:30:33.659Z,98.00
2018-06-14T06:32:37.197Z,98.30
2018-06-14T06:34:40.669Z,98.30
2018-06-14T06:36:44.152Z,97.90
2018-06-14T06:38:47.778Z,97.70
2018-06-14T06:40:51.192Z,97.40
2018-06-14T06:42:54.732Z,97.40
2018-06-14T06:44:58.267Z,97.80
2018-06-14T06:47:02.048Z,97.20
2018-06-14T06:49:05.593Z,97.50
2018-06-14T06:51:09.076Z,98.00
2018-06-14T06:55:15.767Z,98.10
2018-06-14T06:57:19.548Z,97.70
2018-06-14T06:59:23.047Z,97.40
2018-06-14T07:01:26.550Z,97.30
2018-06-14T07:03:30.087Z,97.10
2018-06-14T07:05:33.567Z,97.00
2018-06-14T07:07:37.086Z,97.00
2018-06-14T07:09:40.658Z,97.00
2018-06-14T07:15:50.484Z,96.50
2018-06-14T07:17:53.946Z,96.40
2018-06-14T07:19:57.513Z,96.20
2018-06-14T07:22:01.225Z,96.10
2018-06-14T07:24:04.984Z,96.30
2018-06-14T07:26:08.459Z,96.20
2018-06-14T07:28:11.958Z,96.30
2018-06-14T07:30:15.431Z,95.70
2018-06-14T07:32:18.967Z,94.80
2018-06-14T07:34:22.463Z,93.80
2018-06-14T07:36:26.020Z,93.80
2018-06-14T07:38:29.591Z,93.50
2018-06-14T07:40:33.118Z,93.40
2018-06-14T07:42:36.616Z,93.50
2018-06-14T07:44:40.143Z,92.00
2018-06-14T07:46:43.663Z,91.60
2018-06-14T07:48:47.163Z,90.00
2018-06-14T07:50:50.672Z,89.90
2018-06-14T07:52:54.248Z,91.60
2018-06-14T07:54:57.845Z,91.90
2018-06-14T07:57:01.443Z,90.50
2018-06-14T07:59:04.974Z,90.10
2018-06-14T08:01:08.496Z,89.90
2018-06-14T08:03:11.995Z,88.90
2018-06-14T08:05:15.811Z,90.00
2018-06-14T08:07:19.476Z,86.40
2018-06-14T08:09:22.995Z,82.40
2018-06-14T08:11:26.456Z,85.50
2018-06-14T08:13:30.021Z,85.40
2018-06-14T08:15:33.552Z,80.30
2018-06-14T08:17:37.067Z,79.10
2018-06-14T08:19:40.652Z,83.20
2018-06-14T08:21:44.140Z,83.60
2018-06-14T08:23:47.671Z,82.30
2018-06-14T08:25:51.216Z,83.10
2018-06-14T08:27:54.812Z,80.80
2018-06-14T08:29:58.320Z,82.70
2018-06-14T08:32:01.825Z,81.00
2018-06-14T08:34:05.320Z,81.10
2018-06-14T08:36:08.795Z,81.40
2018-06-14T08:38:12.284Z,80.00
2018-06-14T08:40:15.772Z,78.80
2018-06-14T08:42:19.258Z,79.50
2018-06-14T08:44:22.817Z,80.70
2018-06-14T08:46:26.331Z,80.30
2018-06-14T08:48:29.891Z,77.50
2018-06-14T08:50:33.386Z,77.80
2018-06-14T08:52:36.868Z,80.90
2018-06-14T08:54:40.475Z,79.30
2018-06-14T08:56:44.024Z,78.60
2018-06-14T08:58:47.543Z,80.10
2018-06-14T09:00:51.143Z,79.80
2018-06-14T09:02:54.747Z,78.20
2018-06-14T09:04:58.288Z,79.20
2018-06-14T09:07:01.749Z,76.80
2018-06-14T09:09:07.651Z,77.70
2018-06-14T09:11:11.132Z,79.10
2018-06-14T09:13:14.608Z,78.40
2018-06-14T09:15:18.156Z,78.60
2018-06-14T09:17:21.881Z,77.70
2018-06-14T09:19:25.543Z,78.50
2018-06-14T09:21:29.077Z,75.70
2018-06-14T09:23:32.615Z,76.50
2018-06-14T09:25:36.091Z,77.30
2018-06-14T09:27:39.575Z,76.30
2018-06-14T09:29:43.272Z,73.40
2018-06-14T09:31:47.063Z,73.60
2018-06-14T09:33:50.655Z,73.60
2018-06-14T09:35:54.245Z,73.10
2018-06-14T09:37:57.688Z,72.50
2018-06-14T09:40:01.244Z,72.20
2018-06-14T09:44:07.955Z,71.50
2018-06-14T09:46:11.552Z,72.30
2018-06-14T09:48:15.101Z,73.20
2018-06-14T09:50:18.663Z,74.40
2018-06-14T09:52:22.157Z,72.50
2018-06-14T09:54:25.657Z,71.60
2018-06-14T09:56:29.202Z,69.80
2018-06-14T09:58:32.911Z,71.10
2018-06-14T10:00:36.442Z,70.30
2018-06-14T10:02:40.590Z,71.70
2018-06-14T10:04:44.135Z,73.00
2018-06-14T10:06:47.663Z,74.70
2018-06-14T10:08:51.136Z,74.30
2018-06-14T10:10:54.680Z,72.90
2018-06-14T10:12:58.139Z,72.50
2018-06-14T10:15:01.614Z,73.50
2018-06-14T10:17:05.512Z,74.20
2018-06-14T10:19:09.083Z,74.50
2018-06-14T10:21:12.774Z,73.10
2018-06-14T10:23:16.245Z,71.90
2018-06-14T10:25:19.727Z,73.60
2018-06-14T10:27:23.277Z,74.00
2018-06-14T10:29:26.837Z,73.50
2018-06-14T10:31:30.319Z,73.10
2018-06-14T10:33:33.891Z,72.50
2018-06-14T10:35:37.414Z,71.90
2018-06-14T10:37:40.952Z,74.20
2018-06-14T10:39:44.463Z,72.90
2018-06-14T10:41:47.968Z,73.10
2018-06-14T10:43:51.464Z,72.90
2018-06-14T10:45:55.183Z,72.50
2018-06-14T10:47:58.706Z,73.10
2018-06-14T10:50:02.193Z,73.60
2018-06-14T10:52:05.646Z,72.10
2018-06-14T10:54:09.094Z,72.20
2018-06-14T10:56:12.584Z,73.30
2018-06-14T10:58:16.053Z,72.70
2018-06-14T11:00:19.796Z,72.60
2018-06-14T11:02:23.407Z,72.50
2018-06-14T11:04:26.918Z,73.40
2018-06-14T11:06:30.421Z,73.60
2018-06-14T11:08:33.900Z,74.00
2018-06-14T11:10:37.524Z,73.50
2018-06-14T11:12:41.125Z,74.20
2018-06-14T11:14:44.718Z,72.80
2018-06-14T11:16:48.227Z,74.10
2018-06-14T11:18:51.751Z,72.10
2018-06-14T11:20:55.315Z,74.00
2018-06-14T11:22:58.988Z,74.50
2018-06-14T11:25:03.146Z,74.70
2018-06-14T11:27:06.646Z,73.60
2018-06-14T11:29:10.177Z,72.70
2018-06-14T11:31:13.792Z,72.80
2018-06-14T11:33:17.262Z,71.80
2018-06-14T11:35:20.739Z,70.30
2018-06-14T11:37:24.964Z,69.60
2018-06-14T11:39:28.456Z,70.60
2018-06-14T11:41:31.992Z,70.90
2018-06-14T11:43:35.462Z,70.80
2018-06-14T11:45:38.939Z,70.80
2018-06-14T11:49:45.671Z,73.10
2018-06-14T11:51:49.295Z,74.30
2018-06-14T11:53:52.863Z,71.90
2018-06-14T11:55:56.397Z,72.00
2018-06-14T11:57:59.977Z,72.70
2018-06-14T12:00:03.601Z,73.50
2018-06-14T12:04:10.283Z,72.80
2018-06-14T12:06:13.804Z,69.60
2018-06-14T12:08:17.332Z,68.70
2018-06-14T12:10:20.824Z,68.90
2018-06-14T12:12:24.331Z,70.90
2018-06-14T12:14:27.869Z,70.30
2018-06-14T12:16:31.344Z,71.00
2018-06-14T12:18:34.984Z,72.10
2018-06-14T12:20:38.445Z,69.40
2018-06-14T12:22:42.169Z,68.80
2018-06-14T12:24:45.635Z,67.80
2018-06-14T12:26:49.192Z,71.70
2018-06-14T12:28:52.689Z,71.80
2018-06-14T12:30:56.187Z,71.60
2018-06-14T12:33:00.039Z,71.20
2018-06-14T12:35:07.527Z,69.20
2018-06-14T12:37:11.095Z,68.80
2018-06-14T12:39:21.085Z,67.60
2018-06-14T12:41:24.583Z,69.30
2018-06-14T12:43:28.092Z,68.30
2018-06-14T12:45:31.771Z,69.00
2018-06-14T12:47:35.300Z,66.20
2018-06-14T12:49:38.795Z,66.70
2018-06-14T12:51:42.299Z,64.80
2018-06-14T12:53:45.864Z,65.70
2018-06-14T12:55:49.338Z,68.70
2018-06-14T12:57:53.346Z,67.60
2018-06-14T13:02:00.245Z,67.10
2018-06-14T13:04:03.903Z,67.50
2018-06-14T13:06:07.384Z,66.20
2018-06-14T13:08:10.983Z,65.10
2018-06-14T13:10:14.454Z,65.70
2018-06-14T13:12:18.063Z,65.30
2018-06-14T13:14:21.608Z,64.60
2018-06-14T13:16:25.133Z,65.20
2018-06-14T13:18:28.653Z,67.20
2018-06-14T13:20:32.155Z,69.80
2018-06-14T13:22:35.674Z,69.50
2018-06-14T13:24:42.552Z,68.00
2018-06-14T13:26:46.048Z,69.50
2018-06-14T13:28:49.583Z,69.00
2018-06-14T13:30:53.428Z,70.50
2018-06-14T13:32:56.983Z,70.00
2018-06-14T13:35:00.499Z,68.80
2018-06-14T13:37:04.048Z,69.20
2018-06-14T13:39:08.375Z,69.20
2018-06-14T13:41:11.824Z,71.50
2018-06-14T13:43:15.368Z,72.80
2018-06-14T13:45:18.882Z,71.10
2018-06-14T13:47:22.396Z,69.40
2018-06-14T13:49:25.900Z,68.80
2018-06-14T13:51:29.514Z,71.00
2018-06-14T13:53:33.016Z,70.50
2018-06-14T13:55:36.629Z,69.50
2018-06-14T13:57:40.112Z,68.40
2018-06-14T13:59:43.627Z,68.70
2018-06-14T14:01:47.184Z,69.60
2018-06-14T14:03:50.722Z,69.10
2018-06-14T14:05:54.218Z,68.30
2018-06-14T14:07:57.794Z,69.40
2018-06-14T14:10:01.255Z,70.80
2018-06-14T14:12:05.927Z,70.20
2018-06-14T14:14:09.489Z,69.10
2018-06-14T14:16:12.983Z,69.80
2018-06-14T14:18:16.576Z,69.30
2018-06-14T14:20:20.079Z,68.50
2018-06-14T14:22:23.548Z,69.50
2018-06-14T14:24:27.056Z,67.40
2018-06-14T14:26:31.396Z,68.00
2018-06-14T14:28:34.901Z,69.60
2018-06-14T14:30:38.380Z,68.80
2018-06-14T14:32:41.927Z,69.60
2018-06-14T14:34:45.451Z,69.80
2018-06-14T14:36:48.933Z,69.30
2018-06-14T14:38:52.487Z,69.60
2018-06-14T14:40:56.067Z,68.30
2018-06-14T14:42:59.588Z,68.10
2018-06-14T14:45:03.250Z,68.50
2018-06-14T14:47:06.715Z,68.30
2018-06-14T14:49:11.906Z,69.00
2018-06-14T14:51:15.386Z,69.90
2018-06-14T14:53:18.933Z,67.70
2018-06-14T14:55:22.980Z,66.20
2018-06-14T14:57:26.552Z,65.90
2018-06-14T14:59:30.176Z,64.90
2018-06-14T15:01:33.735Z,68.00
2018-06-14T15:03:37.213Z,69.50
2018-06-14T15:05:40.787Z,68.10
2018-06-14T15:07:44.261Z,66.60
2018-06-14T15:09:47.783Z,66.40
2018-06-14T15:11:51.540Z,64.90
2018-06-14T15:13:55.179Z,63.20
2018-06-14T15:15:58.651Z,64.50
2018-06-14T15:18:02.196Z,67.60
2018-06-14T15:20:05.811Z,66.00
2018-06-14T15:22:09.703Z,65.20
2018-06-14T15:24:13.214Z,66.60
2018-06-14T15:26:16.711Z,65.80
2018-06-14T15:28:20.239Z,61.30
2018-06-14T15:30:23.735Z,64.40
2018-06-14T15:32:27.220Z,63.60
2018-06-14T15:34:30.732Z,62.20
2018-06-14T15:36:34.221Z,62.60
2018-06-14T15:38:37.708Z,61.50
2018-06-14T15:40:41.227Z,61.90
2018-06-14T15:42:44.684Z,61.10
2018-06-14T15:44:48.287Z,62.10
2018-06-14T15:46:51.853Z,62.10
2018-06-14T15:48:55.457Z,66.00
2018-06-14T15:50:59.292Z,63.80
2018-06-14T15:53:02.764Z,63.80
2018-06-14T15:55:17.529Z,63.60
2018-06-14T15:57:22.007Z,63.50
2018-06-14T15:59:25.507Z,63.70
2018-06-14T16:01:28.992Z,62.50
2018-06-14T16:03:32.475Z,60.50
2018-06-14T16:05:36.008Z,61.10
2018-06-14T16:07:39.563Z,60.80
2018-06-14T16:09:43.155Z,56.30
2018-06-14T16:11:46.631Z,55.70
2018-06-14T16:13:50.196Z,51.00
2018-06-14T16:15:53.712Z,47.80
2018-06-14T16:17:57.206Z,46.50
2018-06-14T16:20:00.810Z,47.60
2018-06-14T16:22:04.409Z,48.90
2018-06-14T16:24:07.917Z,50.60
2018-06-14T16:26:11.452Z,50.10
2018-06-14T16:28:14.918Z,52.30
2018-06-14T16:30:18.499Z,53.00
2018-06-14T16:32:22.043Z,53.80
2018-06-14T16:34:25.588Z,54.00
2018-06-14T16:36:29.097Z,55.20
2018-06-14T16:38:32.647Z,55.80
2018-06-14T16:40:36.255Z,55.60
2018-06-14T16:42:39.757Z,55.40
2018-06-14T16:44:43.275Z,54.80
2018-06-14T16:46:46.783Z,57.60
2018-06-14T16:48:50.288Z,57.50
2018-06-14T16:50:53.868Z,57.40
2018-06-14T16:52:57.354Z,57.10
2018-06-14T16:55:00.924Z,56.80
2018-06-14T16:57:04.489Z,57.10
2018-06-14T16:59:07.968Z,59.70
2018-06-14T17:01:11.560Z,59.70
2018-06-14T17:03:15.129Z,60.10
2018-06-14T17:05:18.823Z,59.70
2018-06-14T17:07:22.367Z,60.00
2018-06-14T17:09:25.950Z,59.20
2018-06-14T17:11:29.532Z,61.90
2018-06-14T17:13:33.166Z,61.90
2018-06-14T17:15:36.685Z,61.80
2018-06-14T17:17:40.241Z,61.20
2018-06-14T17:19:43.694Z,62.30
2018-06-14T17:21:47.224Z,61.10
2018-06-14T17:23:50.999Z,59.70
2018-06-14T17:25:54.740Z,59.00
2018-06-14T17:27:58.299Z,60.40
2018-06-14T17:30:01.879Z,60.80
2018-06-14T17:32:05.356Z,61.60
2018-06-14T17:34:10.255Z,63.80
2018-06-14T17:36:13.859Z,63.30
2018-06-14T17:38:17.335Z,62.80
2018-06-14T17:40:20.850Z,64.70
2018-06-14T17:42:24.371Z,67.20
2018-06-14T17:44:28.137Z,67.40
2018-06-14T17:46:31.727Z,66.70
2018-06-14T17:48:35.227Z,66.60
2018-06-14T17:50:38.783Z,67.70
2018-06-14T17:52:42.307Z,68.20
2018-06-14T17:54:46.108Z,67.70
2018-06-14T17:56:49.690Z,67.90
2018-06-14T17:58:53.486Z,67.20
2018-06-14T18:00:57.103Z,68.50
2018-06-14T18:03:00.628Z,68.20
2018-06-14T18:05:04.811Z,68.70
2018-06-14T18:07:07.698Z,70.90
2018-06-14T18:09:11.274Z,70.60
2018-06-14T18:11:14.815Z,69.40
2018-06-14T18:13:20.109Z,69.60
2018-06-14T18:15:23.653Z,69.80
2018-06-14T18:17:27.331Z,69.20
2018-06-14T18:19:30.873Z,70.40
2018-06-14T18:21:34.529Z,70.60
2018-06-14T18:23:38.324Z,72.50
2018-06-14T18:25:43.091Z,73.40
2018-06-14T18:27:46.665Z,74.60
2018-06-14T18:29:50.232Z,76.60
2018-06-14T18:31:53.755Z,79.00
2018-06-14T18:33:57.298Z,80.20
2018-06-14T18:36:00.878Z,82.10
2018-06-14T18:38:04.529Z,82.90
2018-06-14T18:40:07.958Z,83.10
2018-06-14T18:42:11.620Z,83.40
2018-06-14T18:44:15.342Z,83.00
2018-06-14T18:46:18.929Z,82.60
2018-06-14T18:48:22.421Z,82.80
2018-06-14T18:50:25.971Z,83.80
2018-06-14T18:52:29.503Z,84.00
2018-06-14T18:54:33.022Z,84.30
2018-06-14T18:56:36.533Z,83.70
2018-06-14T18:58:40.062Z,85.20
2018-06-14T19:00:43.636Z,83.40
2018-06-14T19:02:47.163Z,83.00
2018-06-14T19:04:50.727Z,84.30
2018-06-14T19:08:59.095Z,84.70
2018-06-14T19:11:02.671Z,86.50
2018-06-14T19:13:06.216Z,89.00
2018-06-14T19:15:09.747Z,90.30
2018-06-14T19:17:13.441Z,91.60
2018-06-14T19:19:16.879Z,92.60
2018-06-14T19:21:20.653Z,92.90
2018-06-14T19:23:24.216Z,93.70
2018-06-14T19:25:27.747Z,93.40
2018-06-14T19:27:31.299Z,94.00
2018-06-14T19:29:34.808Z,94.10
2018-06-14T19:31:38.326Z,94.50
2018-06-14T19:33:41.977Z,94.40
2018-06-14T19:35:45.730Z,95.00
2018-06-14T19:37:49.311Z,95.20
2018-06-14T19:39:52.887Z,95.50
2018-06-14T19:41:56.515Z,95.70
2018-06-14T19:44:00.092Z,96.30
2018-06-14T19:48:07.775Z,96.90
2018-06-14T19:50:11.461Z,95.90
2018-06-14T19:52:15.090Z,97.00
2018-06-14T19:54:18.590Z,95.50
2018-06-14T19:56:22.084Z,95.40
2018-06-14T19:58:26.565Z,95.10
2018-06-14T20:00:30.162Z,95.20
2018-06-14T20:02:33.702Z,95.10
2018-06-14T20:04:37.292Z,95.10
2018-06-14T20:06:40.793Z,94.70
2018-06-14T20:08:44.364Z,95.60
2018-06-14T20:10:48.100Z,96.30
2018-06-14T20:12:51.692Z,96.30
2018-06-14T20:14:55.268Z,96.50
2018-06-14T20:16:58.784Z,96.90
2018-06-14T20:19:02.508Z,97.00
2018-06-14T20:21:06.106Z,97.00
2018-06-14T20:23:09.618Z,97.20
2018-06-14T20:25:13.265Z,97.80
2018-06-14T20:27:16.781Z,97.80
2018-06-14T20:29:20.345Z,98.30
2018-06-14T20:31:24.006Z,98.40
2018-06-14T20:33:27.746Z,98.60
2018-06-14T20:35:31.237Z,98.70
2018-06-14T20:37:34.796Z,98.60
2018-06-14T20:39:38.350Z,98.50
2018-06-14T20:41:42.024Z,98.10
2018-06-14T20:45:48.703Z,97.80
2018-06-14T20:47:52.260Z,98.00
2018-06-14T20:49:55.784Z,97.40
2018-06-14T20:51:59.380Z,97.30
2018-06-14T20:54:03.005Z,97.20
2018-06-14T20:56:06.528Z,97.10
2018-06-14T20:58:10.119Z,97.00
2018-06-14T21:00:13.772Z,97.50
2018-06-14T21:02:17.306Z,97.70
2018-06-14T21:04:20.848Z,97.40
2018-06-14T21:06:24.653Z,97.10
2018-06-14T21:08:28.282Z,97.40
2018-06-14T21:10:32.391Z,97.40
2018-06-14T21:12:35.927Z,97.80
2018-06-14T21:14:39.484Z,97.60
2018-06-14T21:16:43.011Z,97.60
2018-06-14T21:18:48.587Z,98.10
2018-06-14T21:20:52.133Z,98.40
2018-06-14T21:22:55.623Z,98.70
2018-06-14T21:24:59.131Z,99.10
2018-06-14T21:27:02.639Z,99.10
2018-06-14T21:31:09.486Z,99.20
2018-06-14T21:33:13.067Z,99.40
2018-06-14T21:35:16.826Z,99.60
2018-06-14T21:37:20.338Z,99.40
2018-06-14T21:39:23.895Z,99.50
2018-06-14T21:41:27.413Z,99.60
2018-06-14T21:43:30.903Z,99.30
2018-06-14T21:45:34.452Z,99.20
2018-06-14T21:47:37.976Z,99.10
2018-06-14T21:49:41.631Z,99.00
2018-06-14T21:51:45.150Z,98.90
2018-06-14T21:53:48.635Z,99.00
2018-06-14T21:55:52.137Z,99.20
2018-06-14T21:57:55.670Z,99.90
2018-06-14T22:00:00.252Z,99.90
2018-06-14T22:02:03.835Z,99.90
2018-06-14T22:04:07.404Z,99.90
2018-06-14T22:06:10.956Z,99.90
2018-06-14T22:08:14.485Z,99.90
2018-06-14T22:10:18.028Z,99.90
2018-06-14T22:12:21.526Z,99.90
2018-06-14T22:14:25.059Z,99.90
2018-06-14T22:16:28.593Z,99.90
2018-06-14T22:18:32.158Z,99.90
2018-06-14T22:20:35.711Z,99.90
2018-06-14T22:22:39.273Z,99.70
2018-06-14T22:24:42.801Z,99.60
2018-06-14T22:26:46.447Z,99.60
2018-06-14T22:28:50.139Z,99.70
2018-06-14T22:30:53.636Z,99.90
2018-06-14T22:33:08.321Z,99.60
2018-06-14T22:37:20.559Z,99.90
2018-06-14T22:39:24.051Z,99.80
2018-06-14T22:41:27.572Z,99.90
2018-06-14T22:43:31.133Z,99.60
2018-06-14T22:45:35.645Z,99.60
2018-06-14T22:47:39.197Z,99.50
2018-06-14T22:49:42.695Z,99.50
2018-06-14T22:52:57.911Z,99.50
2018-06-14T22:55:01.564Z,99.50
2018-06-14T22:57:05.270Z,99.90
2018-06-14T22:59:08.889Z,99.90
2018-06-14T23:01:50.982Z,99.90
2018-06-14T23:03:54.483Z,99.90
2018-06-14T23:05:58.038Z,99.90
2018-06-14T23:08:01.550Z,99.90
2018-06-14T23:10:18.843Z,99.90
2018-06-14T23:12:22.345Z,99.90
2018-06-14T23:14:25.806Z,99.90
2018-06-14T23:16:29.421Z,99.90
2018-06-14T23:18:32.937Z,99.90
2018-06-14T23:20:36.846Z,99.90
2018-06-14T23:22:40.348Z,99.90
2018-06-14T23:24:43.849Z,99.90
2018-06-14T23:26:47.454Z,99.90
2018-06-14T23:28:50.975Z,99.90
2018-06-14T23:30:54.536Z,99.90
2018-06-14T23:32:58.057Z,99.90
2018-06-14T23:35:01.608Z,99.90
2018-06-14T23:37:05.947Z,99.90
2018-06-14T23:39:09.552Z,99.90
2018-06-14T23:41:13.091Z,99.90
2018-06-14T23:45:19.810Z,99.90
2018-06-14T23:47:23.453Z,99.90
2018-06-14T23:53:33.307Z,99.90
2018-06-14T23:55:36.921Z,99.90
2018-06-14T23:57:40.450Z,99.90
2018-06-14T23:59:44.071Z,99.90
